createdAt,value
2017-05-07T00:00:00.521Z,11.55
2017-05-07T00:01:24.666Z,11.55
2017-05-07T00:02:56.772Z,11.55
2017-05-07T00:04:18.635Z,11.55
2017-05-07T00:05:40.498Z,11.54
2017-05-07T00:07:02.332Z,11.54
2017-05-07T00:08:24.260Z,11.55
2017-05-07T00:09:46.227Z,11.56
2017-05-07T00:11:08.049Z,11.55
2017-05-07T00:12:29.944Z,11.55
2017-05-07T00:13:51.908Z,11.55
2017-05-07T00:15:13.783Z,11.55
2017-05-07T00:16:35.613Z,11.55
2017-05-07T00:17:57.457Z,11.55
2017-05-07T00:19:19.435Z,11.55
2017-05-07T00:20:41.287Z,11.56
2017-05-07T00:22:03.184Z,11.56
2017-05-07T00:23:25.187Z,11.56
2017-05-07T00:24:47.126Z,11.56
2017-05-07T00:26:08.989Z,11.57
2017-05-07T00:27:30.840Z,11.57
2017-05-07T00:28:52.758Z,11.58
2017-05-07T00:30:14.852Z,11.59
2017-05-07T00:31:36.754Z,11.58
2017-05-07T00:32:58.618Z,11.59
2017-05-07T00:34:20.561Z,11.59
2017-05-07T00:35:42.581Z,11.58
2017-05-07T00:37:04.498Z,11.58
2017-05-07T00:38:26.735Z,11.58
2017-05-07T00:39:48.691Z,11.58
2017-05-07T00:41:10.633Z,11.57
2017-05-07T00:42:32.617Z,11.57
2017-05-07T00:43:54.607Z,11.56
2017-05-07T00:45:16.719Z,11.55
2017-05-07T00:46:38.691Z,11.55
2017-05-07T00:48:00.574Z,11.54
2017-05-07T00:49:22.640Z,11.54
2017-05-07T00:50:44.652Z,11.53
2017-05-07T00:52:06.577Z,11.53
2017-05-07T00:53:28.617Z,11.53
2017-05-07T00:54:50.693Z,11.52
2017-05-07T00:56:12.634Z,11.51
2017-05-07T00:57:35.118Z,11.51
2017-05-07T00:59:07.782Z,11.5
2017-05-07T01:00:29.819Z,11.5
2017-05-07T01:01:51.620Z,11.5
2017-05-07T01:03:13.550Z,11.49
2017-05-07T01:04:35.692Z,11.49
2017-05-07T01:05:57.707Z,11.49
2017-05-07T01:07:19.633Z,11.49
2017-05-07T01:08:41.543Z,11.48
2017-05-07T01:10:03.462Z,11.48
2017-05-07T01:11:25.382Z,11.48
2017-05-07T01:12:47.329Z,11.48
2017-05-07T01:14:09.270Z,11.48
2017-05-07T01:15:31.271Z,11.48
2017-05-07T01:16:53.151Z,11.47
2017-05-07T01:18:15.533Z,11.47
2017-05-07T01:19:44.536Z,11.46
2017-05-07T01:24:04.981Z,11.46
2017-05-07T01:25:26.844Z,11.46
2017-05-07T01:26:48.763Z,11.46
2017-05-07T01:28:10.600Z,11.46
2017-05-07T01:29:32.533Z,11.45
2017-05-07T01:30:54.308Z,11.46
2017-05-07T01:32:16.220Z,11.45
2017-05-07T01:33:37.997Z,11.45
2017-05-07T01:34:59.795Z,11.45
2017-05-07T01:36:21.739Z,11.44
2017-05-07T01:37:43.585Z,11.44
2017-05-07T01:39:05.367Z,11.44
2017-05-07T01:40:34.678Z,11.44
2017-05-07T01:42:03.853Z,11.42
2017-05-07T01:43:25.694Z,11.42
2017-05-07T01:44:47.596Z,11.4
2017-05-07T01:46:09.417Z,11.4
2017-05-07T01:47:31.351Z,11.39
2017-05-07T01:48:53.498Z,11.38
2017-05-07T01:50:15.637Z,11.38
2017-05-07T01:51:38.187Z,11.37
2017-05-07T01:53:00.648Z,11.35
2017-05-07T01:54:23.002Z,11.34
2017-05-07T01:57:14.487Z,11.32
2017-05-07T01:59:58.082Z,11.3
2017-05-07T02:01:26.432Z,11.29
2017-05-07T02:02:48.457Z,11.29
2017-05-07T02:04:10.564Z,11.28
2017-05-07T02:05:32.591Z,11.26
2017-05-07T02:06:54.553Z,11.25
2017-05-07T02:08:16.519Z,11.23
2017-05-07T02:09:38.445Z,11.22
2017-05-07T02:11:00.275Z,11.21
2017-05-07T02:12:22.119Z,11.2
2017-05-07T02:13:43.982Z,11.18
2017-05-07T02:15:05.815Z,11.16
2017-05-07T02:16:27.744Z,11.15
2017-05-07T02:17:49.672Z,11.13
2017-05-07T02:19:11.490Z,11.11
2017-05-07T02:20:33.335Z,11.09
2017-05-07T02:22:10.670Z,11.09
2017-05-07T02:23:32.609Z,11.06
2017-05-07T02:24:54.530Z,11.05
2017-05-07T02:26:16.901Z,11.03
2017-05-07T02:27:39.058Z,11.01
2017-05-07T02:29:01.170Z,10.99
2017-05-07T02:30:23.415Z,10.98
2017-05-07T02:31:45.474Z,10.97
2017-05-07T02:33:07.467Z,10.95
2017-05-07T02:34:29.382Z,10.94
2017-05-07T02:35:51.524Z,10.93
2017-05-07T02:37:13.628Z,10.92
2017-05-07T02:38:35.845Z,10.91
2017-05-07T02:39:57.812Z,10.9
2017-05-07T02:41:19.890Z,10.89
2017-05-07T02:44:16.856Z,10.85
2017-05-07T02:45:39.140Z,10.84
2017-05-07T02:47:01.115Z,10.81
2017-05-07T02:48:23.231Z,10.8
2017-05-07T02:49:45.225Z,10.78
2017-05-07T02:51:07.168Z,10.76
2017-05-07T02:52:29.289Z,10.75
2017-05-07T02:53:51.193Z,10.74
2017-05-07T02:55:13.099Z,10.73
2017-05-07T02:56:35.175Z,10.71
2017-05-07T02:58:00.500Z,10.7
2017-05-07T02:59:22.652Z,10.69
2017-05-07T03:00:44.784Z,10.68
2017-05-07T03:02:06.865Z,10.66
2017-05-07T03:03:42.817Z,10.66
2017-05-07T03:05:05.229Z,10.64
2017-05-07T03:06:27.304Z,10.64
2017-05-07T03:07:51.112Z,10.63
2017-05-07T03:09:13.118Z,10.62
2017-05-07T03:10:35.310Z,10.61
2017-05-07T03:11:57.309Z,10.6
2017-05-07T03:13:20.151Z,10.59
2017-05-07T03:14:42.104Z,10.58
2017-05-07T03:17:44.548Z,10.57
2017-05-07T03:19:06.503Z,10.57
2017-05-07T03:20:28.413Z,10.56
2017-05-07T03:21:50.342Z,10.56
2017-05-07T03:23:12.174Z,10.56
2017-05-07T03:24:35.381Z,10.55
2017-05-07T03:25:57.186Z,10.54
2017-05-07T03:27:19.059Z,10.54
2017-05-07T03:28:40.947Z,10.54
2017-05-07T03:30:02.831Z,10.54
2017-05-07T03:31:24.647Z,10.54
2017-05-07T03:32:46.514Z,10.53
2017-05-07T03:34:08.355Z,10.53
2017-05-07T03:35:30.370Z,10.52
2017-05-07T03:36:52.231Z,10.53
2017-05-07T03:38:14.356Z,10.52
2017-05-07T03:39:37.426Z,10.53
2017-05-07T03:40:59.231Z,10.54
2017-05-07T03:42:21.068Z,10.55
2017-05-07T03:43:43.573Z,10.55
2017-05-07T03:45:17.191Z,10.55
2017-05-07T03:46:39.136Z,10.56
2017-05-07T03:48:01.171Z,10.56
2017-05-07T03:49:23.050Z,10.57
2017-05-07T03:50:44.942Z,10.59
2017-05-07T03:52:06.747Z,10.59
2017-05-07T03:53:29.088Z,10.6
2017-05-07T03:54:51.420Z,10.61
2017-05-07T03:56:13.450Z,10.61
2017-05-07T03:57:35.355Z,10.62
2017-05-07T03:58:57.378Z,10.63
2017-05-07T04:00:19.570Z,10.63
2017-05-07T04:01:41.520Z,10.64
2017-05-07T04:03:03.717Z,10.64
2017-05-07T04:04:25.785Z,10.64
2017-05-07T04:05:56.386Z,10.66
2017-05-07T04:07:18.490Z,10.68
2017-05-07T04:08:42.662Z,10.7
2017-05-07T04:10:05.263Z,10.7
2017-05-07T04:11:27.589Z,10.7
2017-05-07T04:12:49.890Z,10.71
2017-05-07T04:14:12.346Z,10.71
2017-05-07T04:15:34.659Z,10.73
2017-05-07T04:16:56.609Z,10.74
2017-05-07T04:18:18.514Z,10.77
2017-05-07T04:19:40.448Z,10.78
2017-05-07T04:21:02.342Z,10.79
2017-05-07T04:22:28.054Z,10.81
2017-05-07T04:23:50.083Z,10.84
2017-05-07T04:25:12.022Z,10.86
2017-05-07T04:26:42.484Z,10.89
2017-05-07T04:28:04.589Z,10.92
2017-05-07T04:29:26.821Z,10.94
2017-05-07T04:30:48.782Z,10.97
2017-05-07T04:32:11.463Z,11
2017-05-07T04:33:33.463Z,11.02
2017-05-07T04:34:55.604Z,11.03
2017-05-07T04:36:17.605Z,11.05
2017-05-07T04:37:39.721Z,11.07
2017-05-07T04:39:01.843Z,11.1
2017-05-07T04:40:23.947Z,11.12
2017-05-07T04:41:46.059Z,11.15
2017-05-07T04:43:09.440Z,11.17
2017-05-07T04:44:33.814Z,11.2
2017-05-07T04:45:56.125Z,11.22
2017-05-07T04:47:26.228Z,11.25
2017-05-07T04:48:54.499Z,11.27
2017-05-07T04:50:17.399Z,11.28
2017-05-07T04:51:41.805Z,11.29
2017-05-07T04:53:06.242Z,11.29
2017-05-07T04:56:02.263Z,11.29
2017-05-07T04:57:29.819Z,11.29
2017-05-07T04:58:51.829Z,11.3
2017-05-07T05:00:13.809Z,11.3
2017-05-07T05:01:36.348Z,11.31
2017-05-07T05:02:58.953Z,11.32
2017-05-07T05:04:22.846Z,11.33
2017-05-07T05:05:45.318Z,11.34
2017-05-07T05:07:08.648Z,11.36
2017-05-07T05:08:31.302Z,11.37
2017-05-07T05:09:53.475Z,11.39
2017-05-07T05:11:20.795Z,11.44
2017-05-07T05:12:56.163Z,11.48
2017-05-07T05:14:19.965Z,11.52
2017-05-07T05:18:57.121Z,11.61
2017-05-07T05:20:19.891Z,11.66
2017-05-07T05:21:44.139Z,11.71
2017-05-07T05:23:09.518Z,11.75
2017-05-07T05:24:33.138Z,11.82
2017-05-07T05:27:54.065Z,11.94
2017-05-07T05:29:27.205Z,11.96
2017-05-07T05:30:56.158Z,11.97
2017-05-07T05:32:24.130Z,11.97
2017-05-07T05:33:47.795Z,11.96
2017-05-07T05:35:11.568Z,11.95
2017-05-07T05:38:24.041Z,11.94
2017-05-07T05:39:51.319Z,11.95
2017-05-07T05:43:20.589Z,11.95
2017-05-07T05:45:05.189Z,11.98
2017-05-07T05:46:37.949Z,12.01
2017-05-07T05:48:09.857Z,12.05
2017-05-07T05:49:42.313Z,12.1
2017-05-07T05:51:30.973Z,12.15
2017-05-07T05:57:07.077Z,12.34
2017-05-07T05:58:45.177Z,12.28
2017-05-07T06:00:20.896Z,12.27
2017-05-07T06:04:05.071Z,12.19
2017-05-07T06:06:01.711Z,12.19
2017-05-07T06:07:39.992Z,12.21
2017-05-07T06:13:02.669Z,12.25
2017-05-07T06:14:35.872Z,12.24
2017-05-07T06:16:22.451Z,12.27
2017-05-07T06:21:27.248Z,12.31
2017-05-07T06:22:51.554Z,12.26
2017-05-07T06:24:16.256Z,12.26
2017-05-07T06:25:40.608Z,12.27
2017-05-07T06:27:05.289Z,12.3
2017-05-07T06:28:37.239Z,12.29
2017-05-07T06:30:00.874Z,12.29
2017-05-07T06:31:24.978Z,12.28
2017-05-07T06:32:48.663Z,12.28
2017-05-07T06:34:22.375Z,12.26
2017-05-07T06:35:49.387Z,12.27
2017-05-07T06:37:25.559Z,12.27
2017-05-07T06:39:12.025Z,12.22
2017-05-07T06:40:43.803Z,12.17
2017-05-07T06:42:08.023Z,12.14
2017-05-07T06:43:44.013Z,12.12
2017-05-07T06:45:22.768Z,12.13
2017-05-07T06:47:03.566Z,12.19
2017-05-07T06:50:02.430Z,12.23
2017-05-07T06:51:36.355Z,12.22
2017-05-07T06:53:04.886Z,12.23
2017-05-07T06:54:31.521Z,12.25
2017-05-07T06:56:17.919Z,12.29
2017-05-07T06:57:42.608Z,12.36
2017-05-07T06:59:09.291Z,12.44
2017-05-07T07:00:38.679Z,12.47
2017-05-07T07:02:25.791Z,12.54
2017-05-07T07:03:50.465Z,12.65
2017-05-07T07:05:43.737Z,12.72
2017-05-07T07:07:10.992Z,12.72
2017-05-07T07:08:56.091Z,12.75
2017-05-07T07:10:23.008Z,12.76
2017-05-07T07:13:43.666Z,12.88
2017-05-07T07:17:03.218Z,13.04
2017-05-07T07:18:28.530Z,13.07
2017-05-07T07:20:03.341Z,13.17
2017-05-07T07:21:34.425Z,13.26
2017-05-07T07:23:00.778Z,13.38
2017-05-07T07:26:14.461Z,13.53
2017-05-07T07:27:55.225Z,13.55
2017-05-07T07:37:18.451Z,13.72
2017-05-07T07:40:40.066Z,13.87
2017-05-07T07:45:49.455Z,14.23
2017-05-07T07:47:32.920Z,14.33
2017-05-07T07:49:28.403Z,14.37
2017-05-07T07:51:01.544Z,14.51
2017-05-07T07:52:54.085Z,14.54
2017-05-07T07:54:26.402Z,14.55
2017-05-07T07:55:49.177Z,14.5
2017-05-07T07:57:11.541Z,14.54
2017-05-07T07:58:33.858Z,14.65
2017-05-07T07:59:57.824Z,14.71
2017-05-07T08:01:20.192Z,14.77
2017-05-07T08:02:44.345Z,14.82
2017-05-07T08:04:19.888Z,14.85
2017-05-07T08:05:44.423Z,14.97
2017-05-07T08:10:11.821Z,15.28
2017-05-07T08:13:18.829Z,15.49
2017-05-07T08:14:55.758Z,15.57
2017-05-07T08:16:30.342Z,15.7
2017-05-07T08:19:37.407Z,15.85
2017-05-07T08:21:02.385Z,15.96
2017-05-07T08:22:26.808Z,15.97
2017-05-07T08:23:59.928Z,15.91
2017-05-07T08:25:22.515Z,15.81
2017-05-07T08:26:55.329Z,15.73
2017-05-07T08:29:50.256Z,15.56
2017-05-07T08:31:13.355Z,15.52
2017-05-07T08:32:36.125Z,15.56
2017-05-07T08:34:00.640Z,15.62
2017-05-07T08:35:35.319Z,15.65
2017-05-07T08:36:57.693Z,15.88
2017-05-07T08:38:20.811Z,16.01
2017-05-07T08:39:46.451Z,16.3
2017-05-07T08:41:10.233Z,16.45
2017-05-07T08:50:34.036Z,16.87
2017-05-07T08:55:30.702Z,16.98
2017-05-07T09:01:01.343Z,16.55
2017-05-07T09:22:24.765Z,17.49
2017-05-07T10:24:51.956Z,17.48
2017-05-07T10:26:35.830Z,17.76
2017-05-07T10:41:16.671Z,18.59
2017-05-07T10:44:09.463Z,18.88
2017-05-07T10:45:38.288Z,18.87
2017-05-07T10:47:13.527Z,19.2
2017-05-07T10:49:00.946Z,19.31
2017-05-07T10:50:48.777Z,18.83
2017-05-07T10:52:27.074Z,18.15
2017-05-07T10:54:02.316Z,17.8
2017-05-07T10:57:44.477Z,17.26
2017-05-07T10:59:24.882Z,17.06
2017-05-07T11:01:05.511Z,16.95
2017-05-07T11:03:17.076Z,16.66
2017-05-07T11:06:11.518Z,16.26
2017-05-07T11:18:47.830Z,16.42
2017-05-07T11:27:32.596Z,16.04
2017-05-07T11:29:16.301Z,16.28
2017-05-07T11:31:08.519Z,16.36
2017-05-07T11:32:41.683Z,16.41
2017-05-07T11:34:12.757Z,16.55
2017-05-07T11:35:53.415Z,16.5
2017-05-07T11:37:35.336Z,16.45
2017-05-07T11:39:12.248Z,16.61
2017-05-07T11:40:42.098Z,16.68
2017-05-07T11:48:10.097Z,17.16
2017-05-07T11:53:05.914Z,16.69
2017-05-07T12:03:20.624Z,16.89
2017-05-07T12:08:48.883Z,17.43
2017-05-07T12:10:28.902Z,17.39
2017-05-07T12:13:43.489Z,17.16
2017-05-07T13:25:26.494Z,18.26
2017-05-07T13:31:36.476Z,19.44
2017-05-07T15:36:47.904Z,18.59
2017-05-07T16:03:35.971Z,17.21
2017-05-07T16:05:16.005Z,17.13
2017-05-07T16:08:30.282Z,16.8
2017-05-07T16:10:23.036Z,16.59
2017-05-07T16:12:24.896Z,16.38
2017-05-07T16:14:31.417Z,16.22
2017-05-07T16:16:09.221Z,16.11
2017-05-07T16:42:41.554Z,14.26
2017-05-07T16:44:11.587Z,14.12
2017-05-07T16:45:47.267Z,14.09
2017-05-07T16:49:10.746Z,13.82
2017-05-07T16:50:36.962Z,13.77
2017-05-07T16:53:55.020Z,13.74
2017-05-07T16:55:23.177Z,13.73
2017-05-07T16:56:53.748Z,13.72
2017-05-07T16:58:20.190Z,13.73
2017-05-07T17:00:23.215Z,13.75
2017-05-07T17:01:59.254Z,13.77
2017-05-07T17:04:56.903Z,13.72
2017-05-07T17:08:29.039Z,13.62
2017-05-07T17:10:08.704Z,13.54
2017-05-07T17:13:04.059Z,13.47
2017-05-07T17:14:32.553Z,13.44
2017-05-07T17:16:04.329Z,13.43
2017-05-07T17:17:31.181Z,13.41
2017-05-07T17:18:56.956Z,13.41
2017-05-07T17:20:22.995Z,13.41
2017-05-07T17:21:54.656Z,13.38
2017-05-07T17:23:35.454Z,13.34
2017-05-07T17:25:08.609Z,13.28
2017-05-07T17:26:38.550Z,13.24
2017-05-07T17:28:03.763Z,13.19
2017-05-07T17:29:33.509Z,13.13
2017-05-07T17:31:10.687Z,13.05
2017-05-07T17:32:40.974Z,12.99
2017-05-07T17:35:13.856Z,12.94
2017-05-07T17:37:08.457Z,12.87
2017-05-07T17:38:39.828Z,12.84
2017-05-07T17:40:20.205Z,12.82
2017-05-07T17:41:51.909Z,12.8
2017-05-07T17:43:34.780Z,12.79
2017-05-07T17:45:15.612Z,12.77
2017-05-07T17:46:49.368Z,12.76
2017-05-07T17:48:52.178Z,12.74
2017-05-07T17:50:28.919Z,12.7
2017-05-07T17:52:24.939Z,12.66
2017-05-07T17:54:05.441Z,12.63
2017-05-07T18:09:53.328Z,12.47
2017-05-07T18:15:05.450Z,12.32
2017-05-07T18:16:55.548Z,12.26
2017-05-07T18:20:04.464Z,12.16
2017-05-07T18:25:00.431Z,12.08
2017-05-07T18:31:06.886Z,12.02
2017-05-07T18:35:49.839Z,11.96
2017-05-07T18:39:35.023Z,11.93
2017-05-07T18:46:43.263Z,11.91
2017-05-07T18:50:26.208Z,11.89
2017-05-07T18:54:05.441Z,11.87
2017-05-07T18:55:48.221Z,11.87
2017-05-07T18:57:23.127Z,11.87
2017-05-07T18:58:59.204Z,11.87
2017-05-07T19:00:33.774Z,11.86
2017-05-07T19:02:13.242Z,11.85
2017-05-07T19:08:04.695Z,11.83
2017-05-07T19:20:10.040Z,11.81
2017-05-07T19:21:57.048Z,11.82
2017-05-07T19:23:36.670Z,11.81
2017-05-07T19:26:02.097Z,11.81
2017-05-07T19:27:47.766Z,11.81
2017-05-07T19:29:33.749Z,11.81
2017-05-07T19:31:29.748Z,11.8
2017-05-07T19:33:18.127Z,11.8
2017-05-07T19:35:01.771Z,11.8
2017-05-07T19:36:34.655Z,11.79
2017-05-07T19:52:42.059Z,11.73
2017-05-07T19:54:50.596Z,11.73
2017-05-07T19:56:31.766Z,11.73
2017-05-07T20:00:15.888Z,11.74
2017-05-07T20:03:51.655Z,11.74
2017-05-07T20:05:36.517Z,11.73
2017-05-07T20:07:15.699Z,11.72
2017-05-07T20:15:35.953Z,11.71
2017-05-07T20:21:43.998Z,11.68
2017-05-07T20:24:47.972Z,11.67
2017-05-07T20:45:42.533Z,11.77
2017-05-07T20:55:58.017Z,11.65
